Time;durP1;ratioP1;P1;durP2;ratioP2;P2;SDS_P1;SDS_P2;PMS_P1;PMS_P2;Temp;Humidity;BMP_temperature;BMP_pressure;BME280_temperature;BME280_humidity;BME280_pressure;Samples;Min_cycle;Max_cycle;Signal;HPM_P1;HPM_P2
2022/02/18 00:01:12;;;;;;;8.70;3.60;;;;;;;5.34;100.00;96740.41;4921663;28;20666;-55
2022/02/18 00:03:41;;;;;;;11.07;3.13;;;;;;;5.38;100.00;96745.34;4940128;28;20238;-57
2022/02/18 00:06:09;;;;;;;8.53;3.60;;;;;;;5.30;100.00;96736.47;4931919;28;20305;-58
2022/02/18 00:08:37;;;;;;;7.23;3.60;;;;;;;4.91;100.00;96739.63;4942545;28;20233;-57
2022/02/18 00:11:06;;;;;;;7.80;3.43;;;;;;;5.10;100.00;96742.97;4905398;28;20243;-53
2022/02/18 00:13:34;;;;;;;12.07;4.10;;;;;;;5.26;100.00;96736.94;4927637;28;20444;-55
2022/02/18 00:16:04;;;;;;;6.83;2.93;;;;;;;5.21;100.00;96733.00;4936483;28;20218;-52
2022/02/18 00:18:34;;;;;;;10.47;3.00;;;;;;;5.32;100.00;96728.41;4917762;28;20445;-56
2022/02/18 00:21:02;;;;;;;12.67;3.10;;;;;;;5.26;100.00;96721.97;4948783;28;20284;-55
2022/02/18 00:23:30;;;;;;;9.70;2.67;;;;;;;5.11;100.00;96720.97;4940250;28;20234;-55
2022/02/18 00:25:58;;;;;;;8.77;3.33;;;;;;;5.09;100.00;96723.75;4909710;28;20215;-54
2022/02/18 00:28:29;;;;;;;13.17;4.13;;;;;;;5.30;100.00;96722.50;4942794;28;20238;-51
2022/02/18 00:30:57;;;;;;;7.20;2.90;;;;;;;5.24;100.00;96723.16;4932650;28;20211;-53
2022/02/18 00:33:27;;;;;;;8.90;3.33;;;;;;;5.21;100.00;96726.91;4928410;28;20325;-57
2022/02/18 00:35:55;;;;;;;8.13;3.77;;;;;;;5.07;100.00;96726.56;4948206;28;20585;-55
2022/02/18 00:38:23;;;;;;;8.57;3.23;;;;;;;5.00;100.00;96724.72;4941826;28;20357;-58
2022/02/18 00:40:51;;;;;;;7.70;3.43;;;;;;;4.99;100.00;96729.16;4942179;28;20261;-58
2022/02/18 00:43:19;;;;;;;11.90;3.33;;;;;;;4.90;100.00;96725.69;4913027;28;20428;-59
2022/02/18 00:45:48;;;;;;;10.83;3.77;;;;;;;4.78;100.00;96716.47;4942840;28;20202;-52
2022/02/18 00:48:16;;;;;;;11.83;3.73;;;;;;;4.90;100.00;96715.19;4921591;28;20240;-56
2022/02/18 00:50:46;;;;;;;12.53;4.20;;;;;;;4.72;100.00;96702.16;4948097;28;20204;-55
2022/02/18 00:53:14;;;;;;;10.43;3.87;;;;;;;4.76;100.00;96710.56;4947978;28;20253;-55
2022/02/18 00:55:42;;;;;;;12.97;5.30;;;;;;;4.75;100.00;96701.84;4942754;28;20302;-52
2022/02/18 00:58:10;;;;;;;12.80;4.90;;;;;;;4.83;100.00;96698.44;4906264;28;20211;-56
2022/02/18 01:00:39;;;;;;;11.40;3.50;;;;;;;4.91;100.00;96713.38;4945266;28;20227;-57
2022/02/18 01:03:07;;;;;;;10.60;3.93;;;;;;;4.85;100.00;96709.59;4933643;28;20235;-58
2022/02/18 01:05:35;;;;;;;11.43;4.03;;;;;;;4.82;100.00;96712.53;4928859;28;20214;-56
2022/02/18 01:08:05;;;;;;;9.57;3.30;;;;;;;4.81;100.00;96710.06;4949665;28;20306;-57
2022/02/18 01:10:33;;;;;;;9.00;3.83;;;;;;;4.82;100.00;96702.03;4941611;28;22272;-53
2022/02/18 01:13:01;;;;;;;10.20;4.27;;;;;;;4.83;100.00;96713.34;4905196;28;20247;-55
2022/02/18 01:15:29;;;;;;;7.50;3.67;;;;;;;4.97;100.00;96711.91;4944685;28;20297;-55
2022/02/18 01:17:57;;;;;;;12.30;4.53;;;;;;;4.88;100.00;96697.94;4930449;28;20210;-60
2022/02/18 01:20:25;;;;;;;6.53;3.30;;;;;;;4.80;100.00;96697.91;4933873;28;20314;-57
2022/02/18 01:22:53;;;;;;;10.40;3.30;;;;;;;4.68;100.00;96697.38;4944016;28;20705;-60
2022/02/18 01:25:23;;;;;;;7.43;4.13;;;;;;;4.70;100.00;96704.13;4924240;28;20236;-58
2022/02/18 01:27:55;;;;;;;10.87;4.43;;;;;;;4.71;100.00;96708.41;4903771;28;20214;-55
2022/02/18 01:30:25;;;;;;;13.60;4.17;;;;;;;4.59;100.00;96707.84;4943364;28;20211;-54
2022/02/18 01:32:53;;;;;;;11.67;3.97;;;;;;;4.58;100.00;96711.47;4939169;28;20528;-56
2022/02/18 01:35:21;;;;;;;9.70;5.13;;;;;;;4.54;100.00;96706.66;4920376;28;20214;-53
2022/02/18 01:37:51;;;;;;;8.13;3.73;;;;;;;4.56;100.00;96692.44;4941831;28;20325;-60
2022/02/18 01:40:20;;;;;;;11.63;4.00;;;;;;;4.75;100.00;96693.97;4945021;28;20223;-57
2022/02/18 01:42:50;;;;;;;8.00;3.87;;;;;;;4.67;100.00;96693.09;4904835;28;20584;-53
2022/02/18 01:45:18;;;;;;;15.03;4.13;;;;;;;4.67;100.00;96695.72;4945054;28;20903;-53
2022/02/18 01:47:46;;;;;;;13.63;3.90;;;;;;;4.82;100.00;96690.69;4940154;28;20289;-56
2022/02/18 01:50:14;;;;;;;10.40;4.00;;;;;;;4.81;100.00;96689.06;4932075;28;20203;-53
2022/02/18 01:52:44;;;;;;;10.03;4.70;;;;;;;4.57;100.00;96688.81;4930773;28;20230;-58
2022/02/18 01:55:13;;;;;;;10.00;4.17;;;;;;;4.55;100.00;96692.59;4949410;28;20244;-55
2022/02/18 01:57:46;;;;;;;13.07;3.80;;;;;;;4.66;100.00;96691.47;4922978;28;20313;-59
2022/02/18 02:00:18;;;;;;;10.40;3.60;;;;;;;4.69;100.00;96705.09;4905130;28;20295;-54
2022/02/18 02:02:46;;;;;;;7.77;3.70;;;;;;;4.83;100.00;96695.81;4939019;28;20297;-58
2022/02/18 02:05:15;;;;;;;12.50;3.93;;;;;;;4.83;100.00;96705.47;4926279;28;20306;-57
2022/02/18 02:07:45;;;;;;;7.33;2.97;;;;;;;4.96;100.00;96710.28;4927289;28;20211;-57
2022/02/18 02:10:14;;;;;;;9.87;4.23;;;;;;;4.81;100.00;96703.03;4926568;28;20321;-55
2022/02/18 02:12:47;;;;;;;7.53;3.20;;;;;;;5.06;100.00;96693.41;4942789;28;20320;-51
2022/02/18 02:15:19;;;;;;;13.77;4.93;;;;;;;5.05;100.00;96686.50;4882901;28;20340;-55
2022/02/18 02:17:47;;;;;;;10.77;4.57;;;;;;;5.01;100.00;96687.81;4945077;28;20210;-55
2022/02/18 02:20:17;;;;;;;10.90;3.67;;;;;;;5.06;100.00;96696.03;4923768;28;20422;-55
2022/02/18 02:22:47;;;;;;;3.90;2.50;;;;;;;5.20;100.00;96684.06;4911244;28;20405;-53
2022/02/18 02:25:15;;;;;;;8.40;4.03;;;;;;;5.08;100.00;96690.59;4941809;28;20230;-54
2022/02/18 02:27:44;;;;;;;12.07;3.77;;;;;;;5.07;100.00;96683.69;4944541;28;20243;-51
2022/02/18 02:30:13;;;;;;;13.53;3.90;;;;;;;5.05;100.00;96691.75;4902148;28;20321;-55
2022/02/18 02:32:42;;;;;;;8.90;3.23;;;;;;;5.10;100.00;96696.50;4946673;28;20500;-55
2022/02/18 02:35:10;;;;;;;9.87;3.47;;;;;;;5.06;100.00;96682.91;4926353;28;20296;-55
2022/02/18 02:37:39;;;;;;;7.83;3.17;;;;;;;5.02;100.00;96672.88;4923663;28;20225;-58
2022/02/18 02:40:10;;;;;;;13.23;4.67;;;;;;;5.07;100.00;96696.84;4932137;28;20773;-59
2022/02/18 02:42:38;;;;;;;7.07;3.57;;;;;;;5.06;100.00;96689.94;4927605;28;20230;-57
2022/02/18 02:45:07;;;;;;;8.43;3.70;;;;;;;5.09;100.00;96692.22;4915433;28;20321;-55
2022/02/18 02:47:36;;;;;;;11.10;4.13;;;;;;;5.03;100.00;96682.38;4947998;28;20829;-53
2022/02/18 02:50:05;;;;;;;13.97;5.13;;;;;;;5.10;100.00;96680.75;4941398;28;20784;-54
2022/02/18 02:52:33;;;;;;;9.90;4.07;;;;;;;5.23;100.00;96680.28;4923368;28;20282;-55
2022/02/18 02:55:01;;;;;;;12.43;5.23;;;;;;;5.24;100.00;96683.75;4926050;28;20221;-57
2022/02/18 02:57:31;;;;;;;12.33;3.40;;;;;;;5.22;100.00;96689.97;4922635;28;20210;-54
2022/02/18 03:00:00;;;;;;;7.67;3.60;;;;;;;5.26;100.00;96685.19;4948554;28;20289;-53
2022/02/18 03:02:28;;;;;;;14.70;4.07;;;;;;;5.06;100.00;96684.69;4899938;28;20226;-54
2022/02/18 03:04:56;;;;;;;10.07;3.87;;;;;;;5.39;100.00;96691.81;4944831;28;20300;-54
2022/02/18 03:07:24;;;;;;;12.60;3.70;;;;;;;5.42;100.00;96696.72;4923756;28;21025;-51
2022/02/18 03:09:52;;;;;;;10.87;3.20;;;;;;;5.31;100.00;96679.47;4929613;28;20749;-55
2022/02/18 03:12:20;;;;;;;8.27;3.80;;;;;;;5.12;100.00;96685.84;4942522;28;20325;-49
2022/02/18 03:14:50;;;;;;;10.03;3.70;;;;;;;5.07;100.00;96678.44;4935698;28;20333;-51
2022/02/18 03:17:18;;;;;;;11.77;3.87;;;;;;;5.11;100.00;96668.47;4904076;28;20228;-57
2022/02/18 03:19:46;;;;;;;12.30;4.27;;;;;;;5.01;100.00;96687.81;4946399;28;20293;-55
2022/02/18 03:22:16;;;;;;;11.40;4.20;;;;;;;5.23;100.00;96690.78;4936657;28;20305;-54
2022/02/18 03:24:45;;;;;;;5.60;3.57;;;;;;;5.36;100.00;96667.50;4912351;28;20301;-54
2022/02/18 03:27:13;;;;;;;7.57;3.43;;;;;;;5.24;100.00;96689.00;4943413;28;20547;-51
2022/02/18 03:29:41;;;;;;;14.33;3.60;;;;;;;5.27;100.00;96697.34;4944192;28;20734;-53
2022/02/18 03:32:11;;;;;;;6.43;2.90;;;;;;;5.61;100.00;96687.69;4885018;28;20296;-50
2022/02/18 03:34:39;;;;;;;9.60;4.13;;;;;;;5.59;100.00;96673.91;4947205;28;20254;-51
2022/02/18 03:37:07;;;;;;;9.20;3.57;;;;;;;5.76;100.00;96672.09;4922786;28;20221;-55
2022/02/18 03:39:35;;;;;;;7.17;3.40;;;;;;;5.63;100.00;96664.69;4902006;28;20309;-50
2022/02/18 03:42:04;;;;;;;10.07;3.73;;;;;;;5.79;100.00;96663.88;4938168;28;20841;-55
2022/02/18 03:44:34;;;;;;;9.67;3.90;;;;;;;5.65;100.00;96668.78;4946521;28;20300;-52
2022/02/18 03:47:04;;;;;;;11.50;3.57;;;;;;;5.83;100.00;96690.63;4919515;28;20203;-52
2022/02/18 03:49:34;;;;;;;9.87;3.73;;;;;;;5.69;100.00;96677.19;4940775;28;20210;-54
2022/02/18 03:52:02;;;;;;;7.40;3.23;;;;;;;5.86;100.00;96674.53;4941354;28;20298;-51
2022/02/18 03:54:30;;;;;;;12.03;3.93;;;;;;;5.89;100.00;96668.97;4923915;28;20234;-54
2022/02/18 03:56:58;;;;;;;14.27;4.70;;;;;;;5.79;100.00;96680.44;4930120;28;20247;-53
2022/02/18 03:59:26;;;;;;;10.00;3.00;;;;;;;5.79;100.00;96698.03;4947274;28;20475;-52
2022/02/18 04:01:55;;;;;;;11.70;3.60;;;;;;;5.81;100.00;96696.06;4947458;28;20751;-52
2022/02/18 04:04:23;;;;;;;9.33;3.67;;;;;;;5.85;100.00;96705.25;4904996;28;20786;-54
2022/02/18 04:06:52;;;;;;;11.40;4.37;;;;;;;5.89;100.00;96698.69;4947893;28;20242;-55
2022/02/18 04:09:20;;;;;;;7.57;3.13;;;;;;;5.76;100.00;96693.94;4929297;28;20505;-50
2022/02/18 04:11:48;;;;;;;11.50;3.20;;;;;;;5.78;100.00;96691.16;4903155;28;21059;-51
2022/02/18 04:14:17;;;;;;;9.27;3.50;;;;;;;5.73;100.00;96680.31;4947684;28;20730;-56
2022/02/18 04:16:45;;;;;;;10.87;3.37;;;;;;;5.61;100.00;96669.31;4936847;28;20305;-53
2022/02/18 04:19:13;;;;;;;7.97;3.70;;;;;;;5.61;100.00;96674.56;4903747;28;20214;-53
2022/02/18 04:21:43;;;;;;;13.80;3.70;;;;;;;5.65;100.00;96671.41;4932174;28;20328;-52
2022/02/18 04:24:13;;;;;;;8.87;3.53;;;;;;;5.75;100.00;96692.28;4920293;28;20256;-57
2022/02/18 04:26:42;;;;;;;10.57;4.30;;;;;;;5.62;100.00;96702.47;4928281;28;20257;-50
2022/02/18 04:29:11;;;;;;;11.97;4.90;;;;;;;5.66;100.00;96682.78;4947317;28;20623;-56
2022/02/18 04:31:39;;;;;;;13.27;4.33;;;;;;;5.70;100.00;96681.44;4915567;28;21103;-51
2022/02/18 04:34:08;;;;;;;14.67;5.37;;;;;;;5.59;100.00;96692.31;4932385;28;20321;-56
2022/02/18 04:36:36;;;;;;;10.10;3.90;;;;;;;5.52;100.00;96686.06;4923580;28;20430;-53
2022/02/18 04:39:04;;;;;;;13.50;4.20;;;;;;;5.45;100.00;96686.69;4942851;28;20308;-53
2022/02/18 04:41:34;;;;;;;13.13;3.63;;;;;;;5.33;100.00;96685.38;4903390;28;20866;-56
2022/02/18 04:44:02;;;;;;;7.37;3.13;;;;;;;5.20;100.00;96684.06;4920470;28;20805;-53
2022/02/18 04:46:30;;;;;;;11.83;3.37;;;;;;;5.06;100.00;96674.19;4943266;28;20453;-53
2022/02/18 04:48:58;;;;;;;8.63;3.33;;;;;;;5.04;100.00;96679.59;4945280;28;20776;-51
2022/02/18 04:51:27;;;;;;;11.93;3.63;;;;;;;5.18;100.00;96691.28;4895688;28;20471;-55
2022/02/18 04:53:55;;;;;;;10.70;3.93;;;;;;;5.15;100.00;96680.28;4945950;28;20234;-55
2022/02/18 04:56:23;;;;;;;5.80;3.13;;;;;;;5.07;100.00;96683.69;4921482;28;20417;-51
2022/02/18 04:58:53;;;;;;;7.57;3.07;;;;;;;4.88;100.00;96690.06;4928332;28;20234;-53
2022/02/18 05:01:21;;;;;;;8.03;3.33;;;;;;;4.82;100.00;96685.44;4943690;28;21367;-53
2022/02/18 05:03:50;;;;;;;9.37;2.97;;;;;;;4.64;100.00;96676.69;4950917;28;20230;-53
2022/02/18 05:06:18;;;;;;;14.07;4.37;;;;;;;4.52;100.00;96691.09;4897078;28;20545;-56
2022/02/18 05:08:47;;;;;;;9.23;3.53;;;;;;;4.62;100.00;96686.53;4948662;28;20235;-58
2022/02/18 05:11:15;;;;;;;7.40;3.60;;;;;;;4.54;100.00;96688.31;4933332;28;20207;-57
2022/02/18 05:13:44;;;;;;;7.43;3.40;;;;;;;4.44;100.00;96681.38;4916073;28;20321;-55
2022/02/18 05:16:13;;;;;;;10.57;3.67;;;;;;;4.47;100.00;96675.81;4945696;28;20664;-55
2022/02/18 05:18:41;;;;;;;8.73;5.43;;;;;;;4.46;100.00;96673.38;4920498;28;20313;-56
2022/02/18 05:21:10;;;;;;;9.73;4.00;;;;;;;4.52;100.00;96674.53;4905959;28;20658;-55
2022/02/18 05:23:38;;;;;;;7.60;4.17;;;;;;;4.58;100.00;96668.66;4931547;28;20309;-57
2022/02/18 05:26:06;;;;;;;9.37;3.30;;;;;;;4.46;100.00;96674.19;4939808;28;20229;-59
2022/02/18 05:28:34;;;;;;;11.80;2.77;;;;;;;4.04;100.00;96667.09;4928623;28;20298;-56
2022/02/18 05:31:02;;;;;;;11.40;3.33;;;;;;;3.89;100.00;96651.13;4933363;28;20216;-59
2022/02/18 05:33:32;;;;;;;6.47;3.37;;;;;;;4.13;100.00;96654.84;4923241;28;20305;-57
2022/02/18 05:36:00;;;;;;;8.53;4.07;;;;;;;4.22;100.00;96643.44;4942345;28;20234;-59
2022/02/18 05:38:28;;;;;;;12.57;3.67;;;;;;;4.27;100.00;96641.16;4908838;28;20313;-54
2022/02/18 05:40:56;;;;;;;8.67;3.30;;;;;;;4.55;100.00;96640.94;4930446;28;20293;-58
2022/02/18 05:43:25;;;;;;;9.63;3.93;;;;;;;4.57;100.00;96631.09;4929846;28;20526;-56
2022/02/18 05:45:53;;;;;;;9.73;3.90;;;;;;;4.21;100.00;96644.41;4928013;28;20314;-56
2022/02/18 05:48:21;;;;;;;10.50;3.33;;;;;;;3.95;100.00;96641.81;4943946;28;20211;-59
2022/02/18 05:50:50;;;;;;;9.90;3.97;;;;;;;3.67;100.00;96644.59;4943490;28;20241;-57
2022/02/18 05:53:18;;;;;;;6.03;2.90;;;;;;;3.58;100.00;96646.31;4906893;28;20248;-52
2022/02/18 05:55:50;;;;;;;10.23;3.67;;;;;;;3.61;100.00;96651.28;4944627;28;20294;-54
2022/02/18 05:58:18;;;;;;;12.23;3.80;;;;;;;3.50;100.00;96649.72;4932452;28;20210;-54
2022/02/18 06:00:46;;;;;;;11.03;3.83;;;;;;;3.44;100.00;96647.72;4938783;28;20293;-56
2022/02/18 06:03:15;;;;;;;10.47;4.30;;;;;;;3.33;100.00;96643.53;4939737;28;20320;-53
2022/02/18 06:05:43;;;;;;;9.53;3.83;;;;;;;3.24;100.00;96645.25;4941251;28;20265;-55
2022/02/18 06:08:12;;;;;;;11.33;3.83;;;;;;;3.27;100.00;96633.69;4906687;28;22028;-54
2022/02/18 06:10:41;;;;;;;11.60;4.87;;;;;;;3.38;100.00;96638.66;4943945;28;20301;-55
2022/02/18 06:13:09;;;;;;;12.87;4.43;;;;;;;3.48;100.00;96641.19;4918357;28;20456;-52
2022/02/18 06:15:37;;;;;;;10.63;4.23;;;;;;;3.33;100.00;96639.09;4918783;28;20773;-55
2022/02/18 06:18:05;;;;;;;8.50;3.37;;;;;;;3.24;100.00;96629.56;4935633;28;20325;-53
2022/02/18 06:20:33;;;;;;;9.77;3.83;;;;;;;3.43;100.00;96646.88;4927461;28;20544;-49
2022/02/18 06:23:01;;;;;;;12.60;4.17;;;;;;;3.53;100.00;96649.41;4943965;28;20297;-54
2022/02/18 06:25:31;;;;;;;7.50;3.90;;;;;;;3.70;100.00;96644.28;4905943;28;20475;-57
2022/02/18 06:28:07;;;;;;;13.33;3.80;;;;;;;3.90;100.00;96635.25;4941589;28;20533;-54
2022/02/18 06:30:37;;;;;;;9.23;4.03;;;;;;;3.97;100.00;96645.09;4928157;28;20955;-52
2022/02/18 06:33:06;;;;;;;7.90;3.67;;;;;;;3.93;100.00;96644.59;4934767;28;20693;-52
2022/02/18 06:35:34;;;;;;;9.47;3.40;;;;;;;4.12;100.00;96655.84;4928623;28;20722;-55
2022/02/18 06:38:03;;;;;;;5.80;3.67;;;;;;;4.16;100.00;96659.78;4942734;28;20575;-55
2022/02/18 06:40:32;;;;;;;13.47;4.07;;;;;;;4.14;100.00;96653.88;4903871;28;20215;-58
2022/02/18 06:43:00;;;;;;;13.13;5.77;;;;;;;4.22;100.00;96661.78;4944336;28;20721;-57
2022/02/18 06:45:28;;;;;;;9.17;3.80;;;;;;;4.24;100.00;96657.19;4926430;28;20230;-52
2022/02/18 06:47:57;;;;;;;11.50;4.03;;;;;;;4.30;100.00;96645.28;4940472;28;20212;-53
2022/02/18 06:50:25;;;;;;;7.70;3.53;;;;;;;4.31;100.00;96629.34;4930318;28;20423;-56
2022/02/18 06:52:53;;;;;;;8.33;4.17;;;;;;;4.27;100.00;96628.03;4948253;28;20226;-54
2022/02/18 06:55:24;;;;;;;14.60;3.67;;;;;;;4.22;100.00;96626.88;4897492;28;20219;-53
2022/02/18 06:57:55;;;;;;;12.83;7.40;;;;;;;4.31;100.00;96629.34;4947342;28;20786;-56
2022/02/18 07:00:26;;;;;;;13.90;8.30;;;;;;;4.20;100.00;96640.97;4928801;28;20221;-49
2022/02/18 07:02:54;;;;;;;13.07;4.30;;;;;;;4.07;100.00;96630.06;4943779;28;20659;-46
2022/02/18 07:05:22;;;;;;;8.17;3.60;;;;;;;4.14;100.00;96614.56;4925804;28;20222;-53
2022/02/18 07:07:50;;;;;;;10.10;4.17;;;;;;;4.34;100.00;96612.50;4940072;28;20752;-55
2022/02/18 07:10:18;;;;;;;7.63;3.67;;;;;;;4.58;100.00;96606.50;4910664;28;20209;-53
2022/02/18 07:12:46;;;;;;;11.70;4.37;;;;;;;4.74;100.00;96607.53;4941286;28;20233;-47
2022/02/18 07:15:16;;;;;;;8.13;3.37;;;;;;;4.84;100.00;96610.00;4935555;28;20565;-55
2022/02/18 07:17:45;;;;;;;15.23;4.40;;;;;;;4.99;100.00;96613.63;4938522;28;20826;-58
2022/02/18 07:20:15;;;;;;;11.13;4.33;;;;;;;5.09;100.00;96591.66;4940783;28;20290;-53
2022/02/18 07:22:44;;;;;;;21.17;4.33;;;;;;;5.34;100.00;96590.66;4940364;28;20313;-55
2022/02/18 07:25:12;;;;;;;8.07;3.87;;;;;;;5.34;100.00;96574.06;4949004;28;20293;-53
2022/02/18 07:27:41;;;;;;;12.63;3.57;;;;;;;5.26;100.00;96551.25;4900230;28;20218;-53
2022/02/18 07:30:11;;;;;;;8.90;3.30;;;;;;;5.43;100.00;96552.03;4944200;28;20296;-54
2022/02/18 07:32:43;;;;;;;10.53;4.10;;;;;;;5.61;100.00;96554.47;4938393;28;20585;-53
2022/02/18 07:35:11;;;;;;;8.83;4.30;;;;;;;5.61;100.00;96551.84;4942649;28;20252;-52
2022/02/18 07:37:42;;;;;;;10.13;3.90;;;;;;;5.75;100.00;96565.31;4938824;28;20230;-51
2022/02/18 07:40:12;;;;;;;10.53;3.57;;;;;;;5.83;100.00;96567.06;4944042;28;20217;-54
2022/02/18 07:42:42;;;;;;;11.07;3.13;;;;;;;5.86;100.00;96571.97;4900849;28;20337;-52
2022/02/18 07:45:10;;;;;;;10.43;4.03;;;;;;;5.75;100.00;96586.31;4948991;28;20202;-55
2022/02/18 07:47:41;;;;;;;16.07;5.13;;;;;;;5.78;100.00;96586.78;4940654;28;20305;-56
2022/02/18 07:50:10;;;;;;;7.73;3.63;;;;;;;5.70;100.00;96578.94;4948968;28;20221;-56
2022/02/18 07:52:39;;;;;;;15.47;5.23;;;;;;;5.64;100.00;96572.53;4933068;28;20393;-52
2022/02/18 07:55:08;;;;;;;11.53;5.07;;;;;;;5.68;100.00;96559.88;4947758;28;20206;-52
2022/02/18 07:57:37;;;;;;;12.27;4.30;;;;;;;5.87;100.00;96557.84;4902144;28;21053;-52
2022/02/18 08:00:07;;;;;;;15.17;4.03;;;;;;;5.75;100.00;96547.69;4950199;28;21539;-52
2022/02/18 08:02:35;;;;;;;10.73;4.23;;;;;;;5.80;100.00;96547.22;4935782;28;21253;-51
2022/02/18 08:05:06;;;;;;;12.37;4.83;;;;;;;5.62;100.00;96550.84;4948389;28;20310;-53
2022/02/18 08:07:34;;;;;;;13.00;4.10;;;;;;;5.70;100.00;96557.09;4910940;28;20221;-53
2022/02/18 08:10:02;;;;;;;9.93;4.13;;;;;;;5.61;100.00;96543.97;4950254;28;20242;-54
2022/02/18 08:12:30;;;;;;;11.07;3.40;;;;;;;5.69;100.00;96545.75;4901679;28;21851;-50
2022/02/18 08:14:58;;;;;;;16.00;3.70;;;;;;;5.64;100.00;96537.56;4949661;28;20694;-52
2022/02/18 08:17:34;;;;;;;4.50;3.53;;;;;;;5.61;100.00;96525.56;4943210;28;20210;-53
2022/02/18 08:20:02;;;;;;;9.80;4.00;;;;;;;5.69;100.00;96519.47;4930196;28;20700;-53
2022/02/18 08:22:32;;;;;;;13.23;4.63;;;;;;;5.62;100.00;96529.03;4932623;28;20239;-52
2022/02/18 08:25:00;;;;;;;15.60;7.40;;;;;;;5.70;100.00;96521.09;4944306;28;20230;-53
2022/02/18 08:27:28;;;;;;;22.57;6.33;;;;;;;5.73;100.00;96528.66;4942665;28;20504;-54
2022/02/18 08:29:57;;;;;;;9.37;4.17;;;;;;;5.59;100.00;96538.06;4903545;28;20219;-57
2022/02/18 08:32:25;;;;;;;8.67;4.23;;;;;;;5.62;100.00;96537.72;4944234;28;20521;-51
2022/02/18 08:34:54;;;;;;;12.47;4.67;;;;;;;5.70;100.00;96536.88;4940644;28;20732;-54
2022/02/18 08:37:22;;;;;;;9.03;4.30;;;;;;;5.54;100.00;96524.59;4927080;28;20980;-53
2022/02/18 08:39:52;;;;;;;7.20;3.50;;;;;;;5.77;100.00;96534.41;4945350;28;20578;-50
2022/02/18 08:42:20;;;;;;;7.73;3.30;;;;;;;5.68;100.00;96536.22;4938636;28;20772;-53
2022/02/18 08:44:48;;;;;;;10.47;3.70;;;;;;;5.78;100.00;96520.28;4899647;28;20889;-57
2022/02/18 08:47:17;;;;;;;11.57;4.07;;;;;;;5.89;100.00;96513.81;4946454;28;20269;-53
2022/02/18 08:49:45;;;;;;;11.23;3.63;;;;;;;5.96;100.00;96501.63;4931332;28;20646;-54
2022/02/18 08:52:13;;;;;;;12.77;3.50;;;;;;;5.79;100.00;96483.28;4945214;28;20569;-51
2022/02/18 08:54:41;;;;;;;9.53;4.00;;;;;;;6.02;100.00;96495.72;4929796;28;20516;-56
2022/02/18 08:57:11;;;;;;;13.70;4.27;;;;;;;5.89;100.00;96487.53;4945176;28;20558;-57
2022/02/18 08:59:40;;;;;;;7.30;3.37;;;;;;;5.92;100.00;96482.72;4900487;28;20512;-56
2022/02/18 09:02:10;;;;;;;7.97;4.10;;;;;;;5.97;100.00;96466.44;4942349;28;20203;-53
2022/02/18 09:04:38;;;;;;;8.80;4.10;;;;;;;5.86;100.00;96461.56;4943962;28;20423;-52
2022/02/18 09:07:08;;;;;;;5.50;3.73;;;;;;;5.96;100.00;96463.97;4940798;28;20326;-52
2022/02/18 09:09:36;;;;;;;8.33;3.90;;;;;;;5.96;100.00;96467.44;4928639;28;20414;-55
2022/02/18 09:12:05;;;;;;;9.07;4.37;;;;;;;5.98;100.00;96468.09;4944969;28;20343;-56
2022/02/18 09:14:35;;;;;;;9.83;4.07;;;;;;;5.97;100.00;96450.69;4897986;28;20326;-53
2022/02/18 09:17:04;;;;;;;13.13;6.50;;;;;;;5.94;100.00;96443.13;4948607;28;20241;-54
2022/02/18 09:19:32;;;;;;;9.33;4.17;;;;;;;6.21;100.00;96443.63;4942482;28;20277;-52
2022/02/18 09:22:00;;;;;;;8.50;4.13;;;;;;;6.36;100.00;96438.44;4932580;28;20606;-54
2022/02/18 09:24:28;;;;;;;7.87;4.30;;;;;;;6.42;100.00;96435.09;4924196;28;20612;-52
2022/02/18 09:26:57;;;;;;;8.50;4.10;;;;;;;6.35;100.00;96427.13;4943239;28;20214;-53
2022/02/18 09:29:26;;;;;;;7.97;3.53;;;;;;;6.15;100.00;96418.03;4901476;28;20950;-53
2022/02/18 09:31:56;;;;;;;11.17;3.77;;;;;;;6.39;100.00;96418.88;4944933;28;20210;-54
2022/02/18 09:34:28;;;;;;;7.43;3.70;;;;;;;6.37;100.00;96419.88;4940169;28;20838;-52
2022/02/18 09:36:56;;;;;;;86.20;16.00;;;;;;;6.21;100.00;96422.59;4949555;28;20276;-54
2022/02/18 09:39:25;;;;;;;112.10;20.00;;;;;;;6.42;100.00;96413.25;4912477;28;20219;-57
2022/02/18 09:41:54;;;;;;;14.03;7.27;;;;;;;6.22;100.00;96408.44;4944888;28;20632;-56
2022/02/18 09:44:25;;;;;;;12.40;4.00;;;;;;;6.31;100.00;96391.63;4905410;28;20325;-55
2022/02/18 09:46:53;;;;;;;5.80;3.27;;;;;;;6.39;100.00;96385.47;4943371;28;20265;-55
2022/02/18 09:49:24;;;;;;;8.97;3.60;;;;;;;6.41;100.00;96382.66;4937575;28;20630;-52
2022/02/18 09:51:52;;;;;;;8.17;3.67;;;;;;;6.42;100.00;96376.41;4943744;28;20730;-53
2022/02/18 09:54:20;;;;;;;29.40;7.07;;;;;;;6.43;100.00;96385.94;4930490;28;20234;-52
2022/02/18 09:56:48;;;;;;;5.27;3.47;;;;;;;6.23;100.00;96371.47;4932089;28;20245;-57
2022/02/18 09:59:17;;;;;;;9.00;3.60;;;;;;;6.20;100.00;96366.56;4943998;28;20306;-53
2022/02/18 10:01:45;;;;;;;14.47;3.70;;;;;;;6.35;100.00;96371.03;4901119;28;20787;-54
2022/02/18 10:04:13;;;;;;;6.23;3.30;;;;;;;6.42;100.00;96366.69;4945117;28;20223;-54
2022/02/18 10:06:43;;;;;;;14.80;4.33;;;;;;;6.36;100.00;96362.16;4941655;28;20430;-48
2022/02/18 10:09:11;;;;;;;5.60;3.30;;;;;;;6.28;100.00;96352.53;4931666;28;20214;-52
2022/02/18 10:11:56;;;;;;;6.57;3.63;;;;;;;6.41;100.00;96348.47;4931158;28;20226;-51
2022/02/18 10:14:24;;;;;;;9.37;3.10;;;;;;;6.41;100.00;96349.25;4942399;28;20843;-51
2022/02/18 10:16:52;;;;;;;11.57;3.77;;;;;;;6.50;100.00;96337.69;4906870;28;20224;-53
2022/02/18 10:19:22;;;;;;;7.80;3.93;;;;;;;6.54;100.00;96332.06;4941226;28;20222;-54
2022/02/18 10:22:03;;;;;;;9.97;4.70;;;;;;;6.56;100.00;96322.97;4944774;28;20210;-52
2022/02/18 10:24:38;;;;;;;9.27;3.83;;;;;;;6.77;100.00;96324.91;4924119;28;20533;-50
2022/02/18 10:27:06;;;;;;;9.43;3.50;;;;;;;6.69;100.00;96316.28;4928689;28;20221;-53
2022/02/18 10:29:34;;;;;;;7.57;3.40;;;;;;;6.65;100.00;96318.47;4939563;28;20203;-52
2022/02/18 10:32:10;;;;;;;7.63;3.50;;;;;;;6.49;100.00;96306.28;4942562;28;20211;-52
2022/02/18 10:34:56;;;;;;;7.17;4.00;;;;;;;6.51;100.00;96297.22;4920711;28;20557;-53
2022/02/18 10:37:27;;;;;;;7.73;3.37;;;;;;;6.43;100.00;96292.00;4941344;28;20295;-48
2022/02/18 10:40:05;;;;;;;9.13;3.37;;;;;;;6.51;100.00;96286.69;4928976;28;20210;-51
2022/02/18 10:42:34;;;;;;;10.87;2.90;;;;;;;6.59;100.00;96288.41;4932774;28;20771;-54
2022/02/18 10:45:10;;;;;;;6.90;3.57;;;;;;;6.62;100.00;96274.88;4946065;28;20711;-51
2022/02/18 10:47:39;;;;;;;12.97;3.83;;;;;;;6.57;100.00;96277.25;4900640;28;20991;-52
2022/02/18 10:50:18;;;;;;;6.80;3.50;;;;;;;6.58;100.00;96270.97;4943638;28;20219;-53
2022/02/18 10:53:10;;;;;;;11.67;4.17;;;;;;;6.65;100.00;96260.56;4939696;28;20219;-53
2022/02/18 10:55:49;;;;;;;9.10;3.70;;;;;;;6.59;100.00;96254.19;4930685;28;20884;-52
2022/02/18 10:58:24;;;;;;;6.03;3.20;;;;;;;6.72;100.00;96250.91;4928044;28;20213;-50
2022/02/18 11:01:04;;;;;;;10.10;3.90;;;;;;;6.65;100.00;96247.38;4942249;28;20861;-54
2022/02/18 11:03:32;;;;;;;5.60;3.50;;;;;;;6.85;100.00;96244.22;4900330;28;20430;-54
2022/02/18 11:06:32;;;;;;;11.50;3.70;;;;;;;6.90;100.00;96233.94;4945491;28;20309;-53
2022/02/18 11:09:03;;;;;;;17.13;11.13;;;;;;;6.79;100.00;96227.31;4864614;29;20214;-52
2022/02/18 11:11:33;;;;;;;7.43;3.80;;;;;;;6.69;100.00;96221.53;4856233;29;20309;-55
2022/02/18 11:14:03;;;;;;;6.20;2.90;;;;;;;6.68;100.00;96219.91;4853489;29;20251;-54
2022/02/18 11:16:32;;;;;;;9.03;3.30;;;;;;;6.59;100.00;96214.72;4859855;29;20553;-52
2022/02/18 11:19:01;;;;;;;9.23;3.60;;;;;;;6.42;100.00;96215.91;4823243;29;20730;-53
2022/02/18 11:21:30;;;;;;;13.73;4.07;;;;;;;6.46;100.00;96199.59;4864090;29;20210;-52
2022/02/18 11:24:00;;;;;;;10.33;3.63;;;;;;;6.36;100.00;96194.59;4868342;29;20315;-57
2022/02/18 11:26:30;;;;;;;7.00;3.70;;;;;;;6.46;100.00;96199.59;4846213;29;20305;-52
2022/02/18 11:28:59;;;;;;;5.83;3.50;;;;;;;6.46;100.00;96191.69;4864289;29;20345;-51
2022/02/18 11:31:29;;;;;;;7.40;3.30;;;;;;;6.47;100.00;96174.06;4847867;29;20245;-56
2022/02/18 11:34:42;;;;;;;9.10;3.80;;;;;;;6.40;100.00;96163.44;4825143;29;20268;-54
2022/02/18 11:37:41;;;;;;;6.57;2.83;;;;;;;6.52;100.00;96158.53;4817234;29;20307;-56
2022/02/18 11:40:30;;;;;;;10.67;3.97;;;;;;;6.48;100.00;96160.75;4817305;29;20243;-56